Time;durP1;ratioP1;P1;durP2;ratioP2;P2;SDS_P1;SDS_P2;PMS_P1;PMS_P2;Temp;Humidity;BMP_temperature;BMP_pressure;BME280_temperature;BME280_humidity;BME280_pressure;Samples;Min_cycle;Max_cycle;Signal;HPM_P1;HPM_P2
2023/06/03 00:01:19;;;;;;;10.60;4.93;;;;;;;;;;6113012;23;20392;-92
2023/06/03 00:03:46;;;;;;;8.20;4.30;;;;;;;;;;6115623;23;20432;-91
2023/06/03 00:06:12;;;;;;;5.77;3.90;;;;;;;;;;6114897;23;20935;-93
2023/06/03 00:08:39;;;;;;;7.53;5.03;;;;;;;;;;6111023;23;20388;-92
2023/06/03 00:11:05;;;;;;;7.40;4.20;;;;;;;;;;6138811;23;20373;-93
2023/06/03 00:13:31;;;;;;;6.13;4.23;;;;;;;;;;6137665;23;20376;-94
2023/06/03 00:15:58;;;;;;;8.47;4.57;;;;;;;;;;6111471;23;20955;-94
2023/06/03 00:18:23;;;;;;;8.20;4.33;;;;;;;;;;6108954;23;20381;-93
2023/06/03 00:20:50;;;;;;;7.83;5.10;;;;;;;;;;6114346;23;20377;-92
2023/06/03 00:23:16;;;;;;;7.43;4.67;;;;;;;;;;6109547;23;20428;-93
2023/06/03 00:25:42;;;;;;;9.37;4.43;;;;;;;;;;6114214;23;20377;-93
2023/06/03 00:28:08;;;;;;;5.73;4.83;;;;;;;;;;6112838;23;20368;-94
2023/06/03 00:30:34;;;;;;;9.07;4.93;;;;;;;;;;6110828;23;20424;-92
2023/06/03 00:33:00;;;;;;;8.10;4.67;;;;;;;;;;6109531;23;20701;-92
2023/06/03 00:35:26;;;;;;;13.13;4.27;;;;;;;;;;6112176;23;20405;-93
2023/06/03 00:37:54;;;;;;;6.10;4.17;;;;;;;;;;6133193;23;20431;-92
2023/06/03 00:40:20;;;;;;;6.20;4.07;;;;;;;;;;6111243;23;20389;-92
2023/06/03 00:42:47;;;;;;;6.40;3.63;;;;;;;;;;6114276;23;20377;-94
2023/06/03 00:45:13;;;;;;;7.70;3.93;;;;;;;;;;6113176;23;20377;-93
2023/06/03 00:47:39;;;;;;;7.27;4.30;;;;;;;;;;6110473;23;20472;-93
2023/06/03 00:50:10;;;;;;;6.10;4.47;;;;;;;;;;6111049;23;20463;-94
2023/06/03 00:52:36;;;;;;;4.80;3.60;;;;;;;;;;6109607;23;20376;-94
2023/06/03 00:55:02;;;;;;;7.97;4.30;;;;;;;;;;6109726;23;20392;-92
2023/06/03 00:57:28;;;;;;;4.63;3.93;;;;;;;;;;6109280;23;20393;-92
2023/06/03 00:59:57;;;;;;;5.60;3.50;;;;;;;;;;6107475;23;20916;-92
2023/06/03 01:02:26;;;;;;;10.40;4.43;;;;;;;;;;6132133;23;20372;-91
2023/06/03 01:04:57;;;;;;;6.40;4.13;;;;;;;;;;6110924;23;20385;-92
2023/06/03 01:07:27;;;;;;;6.70;4.00;;;;;;;;;;6108989;23;20428;-91
2023/06/03 01:10:08;;;;;;;6.27;4.07;;;;;;;;;;6109151;23;20424;-92
2023/06/03 01:12:35;;;;;;;6.13;4.50;;;;;;;;;;6133871;23;20389;-92
2023/06/03 01:15:06;;;;;;;8.33;4.63;;;;;;;;;;6109891;23;20732;-92
2023/06/03 01:17:35;;;;;;;4.03;3.50;;;;;;;;;;6109563;23;20384;-91
2023/06/03 01:20:07;;;;;;;5.43;4.30;;;;;;;;;;6110411;23;20451;-91
2023/06/03 01:22:36;;;;;;;9.40;4.10;;;;;;;;;;6109115;23;20420;-92
2023/06/03 01:25:08;;;;;;;9.40;4.47;;;;;;;;;;6108220;23;20739;-91
2023/06/03 01:27:37;;;;;;;8.30;4.60;;;;;;;;;;6107878;23;20396;-92
2023/06/03 01:30:04;;;;;;;9.03;4.70;;;;;;;;;;6109125;23;20420;-92
2023/06/03 01:32:30;;;;;;;7.67;4.80;;;;;;;;;;6109591;23;20377;-90
2023/06/03 01:34:56;;;;;;;7.70;4.73;;;;;;;;;;6110803;23;20473;-92
2023/06/03 01:37:22;;;;;;;5.33;4.60;;;;;;;;;;6110246;23;20409;-92
2023/06/03 01:39:48;;;;;;;9.97;5.03;;;;;;;;;;6111710;23;20465;-91
2023/06/03 01:42:14;;;;;;;8.80;4.00;;;;;;;;;;6110731;23;20453;-90
2023/06/03 01:44:40;;;;;;;5.80;4.37;;;;;;;;;;6107474;23;20420;-92
2023/06/03 01:47:07;;;;;;;10.30;4.87;;;;;;;;;;6108386;23;20389;-91
2023/06/03 01:49:33;;;;;;;5.97;4.10;;;;;;;;;;6108874;23;20479;-92
2023/06/03 01:52:00;;;;;;;6.30;4.63;;;;;;;;;;6110152;23;20388;-91
2023/06/03 01:54:26;;;;;;;8.87;4.20;;;;;;;;;;6110113;23;20384;-92
2023/06/03 01:56:55;;;;;;;7.77;6.37;;;;;;;;;;6136728;23;20376;-91
2023/06/03 01:59:23;;;;;;;4.87;4.37;;;;;;;;;;6108946;23;20431;-92
2023/06/03 02:01:49;;;;;;;7.30;4.23;;;;;;;;;;6109393;23;20384;-92
2023/06/03 02:04:15;;;;;;;5.93;4.40;;;;;;;;;;6109273;23;20385;-92
2023/06/03 02:06:41;;;;;;;10.50;5.00;;;;;;;;;;6110795;23;20381;-90
2023/06/03 02:09:10;;;;;;;6.40;4.63;;;;;;;;;;6108229;23;20420;-92
2023/06/03 02:11:36;;;;;;;8.47;4.87;;;;;;;;;;6109513;23;20741;-92
2023/06/03 02:14:02;;;;;;;6.17;4.00;;;;;;;;;;6109075;23;20412;-92
2023/06/03 02:16:30;;;;;;;5.00;3.90;;;;;;;;;;6111978;23;20884;-91
2023/06/03 02:19:03;;;;;;;8.30;4.87;;;;;;;;;;6115150;23;20381;-91
2023/06/03 02:21:29;;;;;;;10.03;5.47;;;;;;;;;;6112853;23;20376;-91
2023/06/03 02:23:56;;;;;;;6.03;4.00;;;;;;;;;;6114167;23;20424;-93
2023/06/03 02:26:22;;;;;;;7.50;4.10;;;;;;;;;;6115043;23;20431;-92
2023/06/03 02:28:48;;;;;;;5.30;3.97;;;;;;;;;;6114603;23;20401;-92
2023/06/03 02:31:14;;;;;;;6.30;4.40;;;;;;;;;;6118314;23;20381;-90
2023/06/03 02:33:40;;;;;;;8.63;4.63;;;;;;;;;;6109957;23;20837;-92
2023/06/03 02:36:06;;;;;;;7.23;4.50;;;;;;;;;;6136592;23;20372;-92
2023/06/03 02:38:32;;;;;;;11.67;4.87;;;;;;;;;;6112692;23;20389;-92
2023/06/03 02:40:58;;;;;;;5.60;3.90;;;;;;;;;;6110265;23;20392;-91
2023/06/03 02:43:24;;;;;;;9.60;5.00;;;;;;;;;;6107362;23;20548;-92
2023/06/03 02:45:50;;;;;;;6.20;4.43;;;;;;;;;;6110472;23;20385;-90
2023/06/03 02:48:16;;;;;;;5.43;4.13;;;;;;;;;;6109734;23;20392;-90
2023/06/03 02:50:42;;;;;;;7.50;4.07;;;;;;;;;;6110341;23;20436;-91
2023/06/03 02:53:09;;;;;;;5.93;3.77;;;;;;;;;;6109494;23;20407;-91
2023/06/03 02:55:36;;;;;;;12.50;5.07;;;;;;;;;;6109734;23;20395;-92
2023/06/03 02:58:02;;;;;;;5.50;3.80;;;;;;;;;;6110470;23;20665;-91
2023/06/03 03:00:28;;;;;;;7.10;4.47;;;;;;;;;;6111034;23;20387;-91
2023/06/03 03:02:55;;;;;;;9.97;4.63;;;;;;;;;;6110105;23;20396;-91
2023/06/03 03:05:23;;;;;;;6.80;3.63;;;;;;;;;;6109696;23;20369;-89
2023/06/03 03:07:49;;;;;;;6.90;3.80;;;;;;;;;;6109101;23;21301;-92
2023/06/03 03:10:15;;;;;;;8.13;4.80;;;;;;;;;;6109929;23;20459;-89
2023/06/03 03:12:41;;;;;;;5.43;4.77;;;;;;;;;;6132510;23;20404;-91
2023/06/03 03:15:08;;;;;;;6.40;4.13;;;;;;;;;;6110346;23;20369;-91
2023/06/03 03:17:33;;;;;;;6.90;4.17;;;;;;;;;;6110415;23;20384;-90
2023/06/03 03:19:59;;;;;;;9.30;3.77;;;;;;;;;;6108808;23;20372;-90
2023/06/03 03:22:27;;;;;;;6.60;4.20;;;;;;;;;;6108675;23;20381;-90
2023/06/03 03:24:53;;;;;;;6.90;4.50;;;;;;;;;;6109067;23;20936;-91
2023/06/03 03:27:20;;;;;;;6.70;3.83;;;;;;;;;;6109809;23;20388;-91
2023/06/03 03:29:46;;;;;;;8.43;4.50;;;;;;;;;;6109160;23;20512;-90
2023/06/03 03:32:12;;;;;;;5.20;4.23;;;;;;;;;;6111147;23;20388;-90
2023/06/03 03:34:39;;;;;;;9.50;4.30;;;;;;;;;;6134717;23;20417;-91
2023/06/03 03:37:05;;;;;;;8.37;3.90;;;;;;;;;;6114230;23;20385;-91
2023/06/03 03:39:31;;;;;;;6.83;4.27;;;;;;;;;;6109969;23;20388;-91
2023/06/03 03:41:57;;;;;;;10.07;4.73;;;;;;;;;;6109554;23;20423;-91
2023/06/03 03:44:23;;;;;;;7.80;4.23;;;;;;;;;;6109465;23;20412;-90
2023/06/03 03:46:52;;;;;;;7.37;4.70;;;;;;;;;;6135471;23;20455;-90
2023/06/03 03:49:20;;;;;;;10.13;4.40;;;;;;;;;;6110343;23;21303;-91
2023/06/03 03:51:46;;;;;;;6.30;3.73;;;;;;;;;;6109213;23;20424;-90
2023/06/03 03:54:12;;;;;;;4.77;4.20;;;;;;;;;;6108312;23;20400;-90
2023/06/03 03:56:38;;;;;;;6.37;3.53;;;;;;;;;;6110566;23;20389;-90
2023/06/03 03:59:05;;;;;;;7.53;4.30;;;;;;;;;;6108948;23;20919;-90
2023/06/03 04:01:30;;;;;;;5.43;4.03;;;;;;;;;;6109244;23;20361;-90
2023/06/03 04:03:57;;;;;;;8.17;4.83;;;;;;;;;;6107236;23;20388;-90
2023/06/03 04:06:32;;;;;;;10.23;5.03;;;;;;;;;;6108901;23;21277;-90
2023/06/03 04:09:00;;;;;;;7.40;4.13;;;;;;;;;;6133571;23;20420;-89
2023/06/03 04:11:31;;;;;;;9.80;4.23;;;;;;;;;;6113424;23;20392;-90
2023/06/03 04:13:58;;;;;;;6.97;3.53;;;;;;;;;;6107121;23;20377;-90
2023/06/03 04:16:36;;;;;;;6.10;4.53;;;;;;;;;;6109486;23;20381;-90
2023/06/03 04:19:06;;;;;;;7.37;4.67;;;;;;;;;;6158400;23;20838;-90
2023/06/03 04:21:32;;;;;;;12.10;4.20;;;;;;;;;;6133181;23;20864;-91
2023/06/03 04:23:58;;;;;;;8.07;4.07;;;;;;;;;;6109589;23;20404;-91
2023/06/03 04:26:24;;;;;;;11.83;4.60;;;;;;;;;;6109635;23;20755;-91
2023/06/03 04:28:50;;;;;;;4.97;4.30;;;;;;;;;;6107789;23;20412;-90
2023/06/03 04:31:16;;;;;;;11.73;3.70;;;;;;;;;;6109288;23;20381;-91
2023/06/03 04:33:42;;;;;;;7.60;3.70;;;;;;;;;;6106782;23;20872;-90
2023/06/03 04:36:08;;;;;;;12.00;4.80;;;;;;;;;;6132754;23;20522;-91
2023/06/03 04:38:34;;;;;;;6.40;4.63;;;;;;;;;;6109244;23;20385;-91
2023/06/03 04:41:02;;;;;;;8.30;5.13;;;;;;;;;;6106966;23;20384;-90
2023/06/03 04:43:28;;;;;;;6.47;3.97;;;;;;;;;;6110654;23;21054;-90
2023/06/03 04:45:56;;;;;;;7.17;4.67;;;;;;;;;;6107681;23;20373;-91
2023/06/03 04:48:22;;;;;;;9.77;4.40;;;;;;;;;;6109952;23;20380;-91
2023/06/03 04:50:49;;;;;;;5.37;3.87;;;;;;;;;;6108714;23;20440;-91
2023/06/03 04:53:15;;;;;;;6.80;4.80;;;;;;;;;;6107581;23;20388;-90
2023/06/03 04:55:43;;;;;;;8.50;4.70;;;;;;;;;;6108224;23;20712;-90
2023/06/03 04:58:09;;;;;;;13.53;4.40;;;;;;;;;;6132150;23;20369;-91
2023/06/03 05:00:36;;;;;;;9.27;4.80;;;;;;;;;;6105864;23;20416;-90
2023/06/03 05:03:03;;;;;;;7.67;4.87;;;;;;;;;;6106530;23;20515;-91
2023/06/03 05:05:30;;;;;;;7.57;4.17;;;;;;;;;;6106451;23;20403;-90
2023/06/03 05:07:55;;;;;;;9.20;5.30;;;;;;;;;;6104622;23;20494;-90
2023/06/03 05:10:21;;;;;;;6.27;4.23;;;;;;;;;;6103920;23;20424;-89
2023/06/03 05:12:48;;;;;;;10.17;4.33;;;;;;;;;;6106409;23;20976;-91
2023/06/03 05:15:14;;;;;;;8.43;4.63;;;;;;;;;;6132006;23;20385;-91
2023/06/03 05:17:40;;;;;;;13.60;5.80;;;;;;;;;;6134925;23;20420;-91
2023/06/03 05:20:08;;;;;;;8.83;4.20;;;;;;;;;;6107776;23;20389;-90
2023/06/03 05:22:34;;;;;;;9.17;4.53;;;;;;;;;;6107097;23;20404;-89
2023/06/03 05:24:59;;;;;;;9.43;4.73;;;;;;;;;;6106499;23;20405;-90
2023/06/03 05:27:26;;;;;;;8.60;5.07;;;;;;;;;;6109215;23;20373;-90
2023/06/03 05:29:52;;;;;;;7.10;4.80;;;;;;;;;;6108614;23;20432;-90
2023/06/03 05:32:17;;;;;;;7.60;4.97;;;;;;;;;;6109178;23;20387;-91
2023/06/03 05:34:43;;;;;;;15.13;4.90;;;;;;;;;;6108984;23;20412;-91
2023/06/03 05:37:10;;;;;;;5.10;4.13;;;;;;;;;;6109025;23;20401;-90
2023/06/03 05:39:36;;;;;;;10.43;8.80;;;;;;;;;;6108548;23;20385;-90
2023/06/03 05:42:02;;;;;;;7.40;4.50;;;;;;;;;;6110367;23;20381;-91
2023/06/03 05:44:28;;;;;;;8.73;5.03;;;;;;;;;;6108330;23;20464;-90
2023/06/03 05:46:54;;;;;;;5.57;3.30;;;;;;;;;;6115368;23;20385;-90
2023/06/03 05:49:20;;;;;;;8.37;4.43;;;;;;;;;;6110284;23;20776;-90
2023/06/03 05:51:46;;;;;;;7.03;4.60;;;;;;;;;;6108701;23;20385;-89
2023/06/03 05:54:12;;;;;;;10.13;4.80;;;;;;;;;;6131986;23;20499;-89
2023/06/03 05:56:38;;;;;;;9.47;5.33;;;;;;;;;;6112228;23;20380;-91
2023/06/03 05:59:04;;;;;;;7.70;4.80;;;;;;;;;;6111349;23;20907;-90
2023/06/03 06:01:32;;;;;;;6.10;5.07;;;;;;;;;;6107900;23;20377;-89
2023/06/03 06:03:58;;;;;;;6.13;4.23;;;;;;;;;;6110196;23;20400;-90
2023/06/03 06:06:24;;;;;;;5.90;4.07;;;;;;;;;;6115967;23;20385;-90
2023/06/03 06:08:50;;;;;;;5.77;4.30;;;;;;;;;;6137723;23;20369;-91
2023/06/03 06:11:16;;;;;;;8.10;4.10;;;;;;;;;;6112077;23;20389;-91
2023/06/03 06:13:42;;;;;;;6.27;3.97;;;;;;;;;;6110643;23;20377;-90
2023/06/03 06:16:08;;;;;;;6.03;4.33;;;;;;;;;;6117029;23;20490;-91
2023/06/03 06:18:34;;;;;;;6.00;4.57;;;;;;;;;;6111491;23;20797;-93
2023/06/03 06:21:01;;;;;;;9.87;3.90;;;;;;;;;;6113438;23;20839;-94
2023/06/03 06:23:27;;;;;;;14.00;4.40;;;;;;;;;;6117025;23;20647;-95
2023/06/03 06:25:55;;;;;;;11.90;4.67;;;;;;;;;;6114528;23;21076;-94
2023/06/03 06:28:30;;;;;;;6.40;3.87;;;;;;;;;;6113627;23;20373;-92
2023/06/03 06:30:57;;;;;;;5.10;4.20;;;;;;;;;;6111239;23;20424;-93
2023/06/03 06:33:23;;;;;;;10.93;5.17;;;;;;;;;;6113184;23;20439;-93
2023/06/03 06:35:49;;;;;;;15.80;4.50;;;;;;;;;;6112593;23;20373;-93
2023/06/03 06:38:15;;;;;;;6.33;4.30;;;;;;;;;;6113854;23;20399;-94
2023/06/03 06:40:42;;;;;;;7.20;4.43;;;;;;;;;;6117890;23;20380;-92
2023/06/03 06:46:19;;;;;;;9.10;4.77;;;;;;;;;;6172040;23;20341;-91
2023/06/03 06:48:45;;;;;;;8.07;4.50;;;;;;;;;;6112462;23;20384;-91
2023/06/03 06:57:48;;;;;;;8.70;3.73;;;;;;;;;;5963820;24;20440;-92
2023/06/03 07:00:31;;;;;;;;;;;;;;;;;;;;;
2023/06/03 07:03:11;;;;;;;9.73;4.33;;;;;;;;;;5941639;24;20407;-93
2023/06/03 07:05:37;;;;;;;10.03;5.07;;;;;;;;;;5942463;24;20412;-88
2023/06/03 07:08:03;;;;;;;8.00;4.43;;;;;;;;;;5942872;24;20394;-87
2023/06/03 07:10:29;;;;;;;10.47;4.93;;;;;;;;;;5937844;24;20502;-90
2023/06/03 07:12:56;;;;;;;8.87;4.93;;;;;;;;;;5934000;24;20387;-91
2023/06/03 07:15:45;;;;;;;6.60;4.80;;;;;;;;;;5935500;24;20416;-88
2023/06/03 07:18:11;;;;;;;7.10;3.87;;;;;;;;;;5948270;24;20375;-86
2023/06/03 07:20:47;;;;;;;13.10;4.33;;;;;;;;;;5931870;24;20402;-90
2023/06/03 07:23:14;;;;;;;7.23;4.70;;;;;;;;;;5937920;24;20490;-90
2023/06/03 07:25:43;;;;;;;11.90;4.73;;;;;;;;;;5935381;24;20387;-86
2023/06/03 07:28:14;;;;;;;6.57;4.90;;;;;;;;;;5976483;23;20476;-90
2023/06/03 07:31:18;;;;;;;6.37;4.07;;;;;;;;;;5989315;23;20481;-89
2023/06/03 07:37:00;;;;;;;8.13;4.40;;;;;;;;;;6162726;23;20360;-91
2023/06/03 07:39:38;;;;;;;8.40;4.07;;;;;;;;;;6112259;23;20414;-92
2023/06/03 07:42:05;;;;;;;8.07;4.67;;;;;;;;;;6109742;23;20435;-89
2023/06/03 07:44:43;;;;;;;7.87;4.73;;;;;;;;;;6109370;23;20403;-85
2023/06/03 07:47:36;;;;;;;6.80;4.43;;;;;;;;;;6133182;23;20377;-85
2023/06/03 07:50:12;;;;;;;8.17;5.00;;;;;;;;;;6132250;23;20431;-87
2023/06/03 07:52:48;;;;;;;9.37;5.30;;;;;;;;;;6135662;23;20333;-86
2023/06/03 07:55:23;;;;;;;10.30;5.80;;;;;;;;;;6132275;23;20380;-86
2023/06/03 07:57:49;;;;;;;6.03;4.80;;;;;;;;;;6115600;23;20446;-85
2023/06/03 08:00:42;;;;;;;10.00;5.20;;;;;;;;;;6105534;23;20451;-87
2023/06/03 08:03:08;;;;;;;6.50;4.73;;;;;;;;;;6068244;23;20596;-87
2023/06/03 08:05:34;;;;;;;5.27;4.33;;;;;;;;;;6102766;23;20409;-94
2023/06/03 08:08:07;;;;;;;8.17;4.40;;;;;;;;;;6108343;23;20396;-88
2023/06/03 08:10:36;;;;;;;9.90;5.30;;;;;;;;;;6130579;23;20452;-87
2023/06/03 08:13:02;;;;;;;5.80;4.43;;;;;;;;;;6107459;23;20393;-86
2023/06/03 08:15:32;;;;;;;6.67;4.97;;;;;;;;;;6101908;23;20380;-92
2023/06/03 08:18:04;;;;;;;7.90;4.77;;;;;;;;;;6108498;23;20393;-91
2023/06/03 08:20:32;;;;;;;9.80;5.50;;;;;;;;;;6108660;23;20954;-91
2023/06/03 08:23:19;;;;;;;5.30;4.33;;;;;;;;;;6110137;23;20438;-91
2023/06/03 08:25:45;;;;;;;9.10;5.37;;;;;;;;;;6131587;23;20861;-87
2023/06/03 08:28:32;;;;;;;7.23;5.30;;;;;;;;;;6111913;23;20387;-87
2023/06/03 08:30:58;;;;;;;7.83;5.10;;;;;;;;;;6132181;23;20455;-84
2023/06/03 08:34:00;;;;;;;8.10;4.97;;;;;;;;;;6108310;23;20408;-87
2023/06/03 08:36:53;;;;;;;9.90;5.37;;;;;;;;;;5987751;23;20848;-91
2023/06/03 08:39:38;;;;;;;9.30;5.30;;;;;;;;;;6130003;23;20404;-86
2023/06/03 08:42:10;;;;;;;8.73;5.60;;;;;;;;;;6130104;23;20380;-90
2023/06/03 08:44:47;;;;;;;8.73;4.87;;;;;;;;;;6111090;23;20394;-92
2023/06/03 08:47:45;;;;;;;9.00;6.10;;;;;;;;;;6109917;23;20380;-90
2023/06/03 08:53:36;;;;;;;7.60;5.50;;;;;;;;;;6108261;23;20388;-90
2023/06/03 08:56:02;;;;;;;6.10;4.90;;;;;;;;;;6103247;23;20388;-85
2023/06/03 08:58:32;;;;;;;10.20;6.23;;;;;;;;;;6108534;23;20553;-87
2023/06/03 09:01:13;;;;;;;6.30;4.67;;;;;;;;;;6104421;23;20893;-89
2023/06/03 09:03:40;;;;;;;12.50;6.10;;;;;;;;;;6108324;23;20787;-93
2023/06/03 09:06:12;;;;;;;9.50;5.43;;;;;;;;;;6109456;23;20388;-86
2023/06/03 09:08:45;;;;;;;9.93;5.57;;;;;;;;;;6110941;23;20392;-89
2023/06/03 09:11:18;;;;;;;8.83;5.10;;;;;;;;;;6107478;23;20459;-88
2023/06/03 09:14:03;;;;;;;9.00;5.50;;;;;;;;;;6068465;23;20383;-92
2023/06/03 09:16:29;;;;;;;9.63;5.63;;;;;;;;;;6044589;23;20380;-88
2023/06/03 09:18:59;;;;;;;9.03;5.77;;;;;;;;;;6020465;23;20470;-87
2023/06/03 09:21:28;;;;;;;8.60;5.40;;;;;;;;;;6022168;23;20371;-88
2023/06/03 09:23:56;;;;;;;10.70;5.23;;;;;;;;;;6019644;23;20426;-86
2023/06/03 09:26:28;;;;;;;7.40;6.57;;;;;;;;;;5996099;23;20400;-88
2023/06/03 09:29:11;;;;;;;8.70;5.47;;;;;;;;;;5996795;23;20381;-89
2023/06/03 09:31:38;;;;;;;10.27;6.27;;;;;;;;;;6019170;23;20360;-89
2023/06/03 09:34:15;;;;;;;5.90;5.30;;;;;;;;;;5990731;23;20388;-86
2023/06/03 09:37:14;;;;;;;;;;;;;;;;;;;;;
2023/06/03 09:40:14;;;;;;;9.33;5.93;;;;;;;;;;6125681;23;20453;-86
2023/06/03 09:43:24;;;;;;;10.40;6.13;;;;;;;;;;5958646;24;20957;-88
2023/06/03 09:49:14;;;;;;;8.87;6.70;;;;;;;;;;5898661;24;20464;-87
2023/06/03 09:51:47;;;;;;;8.37;5.90;;;;;;;;;;5897672;24;20854;-88
2023/06/03 09:54:51;;;;;;;6.90;5.73;;;;;;;;;;5877578;24;20491;-87
2023/06/03 10:00:26;;;;;;;7.03;5.33;;;;;;;;;;5902657;24;20441;-87
2023/06/03 10:03:20;;;;;;;10.80;6.70;;;;;;;;;;5898229;24;20392;-86
2023/06/03 10:06:12;;;;;;;9.53;5.83;;;;;;;;;;5899856;24;20395;-85
2023/06/03 10:08:38;;;;;;;11.80;6.37;;;;;;;;;;5844994;24;20391;-89
2023/06/03 10:11:05;;;;;;;7.40;6.60;;;;;;;;;;5845009;24;20533;-89
2023/06/03 10:17:04;;;;;;;8.07;6.20;;;;;;;;;;5849195;24;20415;-90
2023/06/03 10:19:33;;;;;;;11.73;6.70;;;;;;;;;;5899895;24;20380;-92
2023/06/03 10:22:00;;;;;;;7.40;5.90;;;;;;;;;;5904730;24;20457;-90
2023/06/03 10:24:27;;;;;;;12.77;7.27;;;;;;;;;;5882598;24;20389;-91
2023/06/03 10:26:53;;;;;;;12.10;6.90;;;;;;;;;;5980604;23;20397;-92
2023/06/03 10:29:20;;;;;;;10.90;7.53;;;;;;;;;;5993046;23;20959;-91
2023/06/03 10:31:46;;;;;;;12.23;6.53;;;;;;;;;;5989528;23;20409;-91
2023/06/03 10:34:15;;;;;;;8.17;6.57;;;;;;;;;;5988291;23;20452;-91
2023/06/03 10:36:42;;;;;;;8.67;6.60;;;;;;;;;;5989037;23;21124;-90
2023/06/03 10:39:10;;;;;;;9.03;6.10;;;;;;;;;;5988401;23;20389;-90
2023/06/03 10:41:38;;;;;;;7.83;6.20;;;;;;;;;;5987926;23;20402;-91
2023/06/03 10:44:04;;;;;;;9.00;5.50;;;;;;;;;;5986477;23;20393;-92
2023/06/03 10:46:30;;;;;;;10.77;6.80;;;;;;;;;;6108153;23;20446;-91
2023/06/03 10:48:57;;;;;;;9.43;6.23;;;;;;;;;;6105123;23;20417;-89
2023/06/03 10:51:29;;;;;;;7.70;6.53;;;;;;;;;;6102299;23;20663;-91
2023/06/03 10:54:13;;;;;;;9.17;6.10;;;;;;;;;;6135910;23;20400;-95
2023/06/03 10:56:43;;;;;;;6.60;5.90;;;;;;;;;;6113362;23;20378;-95
2023/06/03 10:59:10;;;;;;;8.60;5.53;;;;;;;;;;6114429;23;20401;-95
2023/06/03 11:01:58;;;;;;;11.97;6.37;;;;;;;;;;6107944;23;20441;-91
2023/06/03 11:04:24;;;;;;;9.50;6.10;;;;;;;;;;6108133;23;20382;-90
2023/06/03 11:06:50;;;;;;;12.43;6.70;;;;;;;;;;6104582;23;20385;-91
2023/06/03 11:09:17;;;;;;;7.87;6.53;;;;;;;;;;6107726;23;20459;-93
2023/06/03 11:11:44;;;;;;;8.80;6.80;;;;;;;;;;6104771;23;20807;-92
2023/06/03 11:14:38;;;;;;;7.27;6.23;;;;;;;;;;6132340;23;20396;-94
2023/06/03 11:17:04;;;;;;;7.23;6.50;;;;;;;;;;6132323;23;20386;-93
2023/06/03 11:19:33;;;;;;;9.50;6.30;;;;;;;;;;6134284;23;20378;-92
2023/06/03 11:22:01;;;;;;;7.60;5.50;;;;;;;;;;6108330;23;21140;-90
2023/06/03 11:24:39;;;;;;;8.10;6.30;;;;;;;;;;6105854;23;20376;-93
2023/06/03 11:27:14;;;;;;;9.83;6.67;;;;;;;;;;6132827;23;20485;-92
2023/06/03 11:29:50;;;;;;;7.97;6.07;;;;;;;;;;6134788;23;20759;-92
2023/06/03 11:32:19;;;;;;;6.83;5.70;;;;;;;;;;6135524;23;20401;-90
2023/06/03 11:34:45;;;;;;;9.30;6.30;;;;;;;;;;6139854;23;20381;-92
2023/06/03 11:37:11;;;;;;;7.00;5.83;;;;;;;;;;6109439;23;20415;-92
2023/06/03 11:40:05;;;;;;;9.57;6.00;;;;;;;;;;6114447;23;20385;-92
2023/06/03 11:42:47;;;;;;;7.47;6.00;;;;;;;;;;6133079;23;20407;-95
2023/06/03 11:45:19;;;;;;;6.50;5.67;;;;;;;;;;6133486;23;20395;-95
2023/06/03 11:47:54;;;;;;;7.93;6.27;;;;;;;;;;6133046;23;20760;-92
2023/06/03 11:50:21;;;;;;;8.57;6.17;;;;;;;;;;6133639;23;20495;-89
2023/06/03 11:52:47;;;;;;;6.80;6.20;;;;;;;;;;6108001;23;20410;-94
2023/06/03 11:55:32;;;;;;;7.63;6.77;;;;;;;;;;6113123;23;20381;-94
2023/06/03 11:58:08;;;;;;;7.43;6.40;;;;;;;;;;6109821;23;20468;-93
2023/06/03 12:00:37;;;;;;;8.20;5.97;;;;;;;;;;6109398;23;20447;-94
2023/06/03 12:03:03;;;;;;;9.50;6.43;;;;;;;;;;6110395;23;20967;-93
2023/06/03 12:05:29;;;;;;;7.33;6.57;;;;;;;;;;6109849;23;20385;-91
2023/06/03 12:08:01;;;;;;;6.53;5.90;;;;;;;;;;6108601;23;20377;-93
2023/06/03 12:10:27;;;;;;;10.77;6.50;;;;;;;;;;6111716;23;20429;-92
2023/06/03 12:12:54;;;;;;;7.00;5.90;;;;;;;;;;6109841;23;20416;-93
2023/06/03 12:15:20;;;;;;;9.80;7.20;;;;;;;;;;6135549;23;20373;-93
2023/06/03 12:17:46;;;;;;;8.77;6.80;;;;;;;;;;6110240;23;20396;-92
2023/06/03 12:20:26;;;;;;;8.50;5.87;;;;;;;;;;6111445;23;20372;-93
2023/06/03 12:23:02;;;;;;;7.40;5.90;;;;;;;;;;6113606;23;20887;-93
2023/06/03 12:25:28;;;;;;;9.03;6.67;;;;;;;;;;6113824;23;20868;-95
2023/06/03 12:27:54;;;;;;;7.33;5.83;;;;;;;;;;6109395;23;20389;-92
2023/06/03 12:30:30;;;;;;;8.97;6.43;;;;;;;;;;6110124;23;20445;-94
2023/06/03 12:33:06;;;;;;;7.60;5.90;;;;;;;;;;6110665;23;20416;-95
2023/06/03 12:35:32;;;;;;;6.60;5.90;;;;;;;;;;6098001;23;20404;-90
2023/06/03 12:38:04;;;;;;;7.70;6.10;;;;;;;;;;6049872;23;20386;-94
2023/06/03 12:40:31;;;;;;;8.60;7.80;;;;;;;;;;6081481;23;20747;-91
2023/06/03 12:42:58;;;;;;;7.73;5.97;;;;;;;;;;6049565;23;20834;-95
2023/06/03 12:45:27;;;;;;;8.47;6.97;;;;;;;;;;6053120;23;20382;-93
2023/06/03 12:47:53;;;;;;;8.70;6.30;;;;;;;;;;6048441;23;20386;-91
2023/06/03 12:50:20;;;;;;;7.30;6.60;;;;;;;;;;6054777;23;20448;-91
2023/06/03 12:52:46;;;;;;;7.67;6.87;;;;;;;;;;6077956;23;20850;-92
2023/06/03 12:55:16;;;;;;;11.60;7.20;;;;;;;;;;6105482;23;20362;-92
2023/06/03 12:57:42;;;;;;;6.63;5.90;;;;;;;;;;6078808;23;20397;-93
2023/06/03 13:00:11;;;;;;;6.83;6.13;;;;;;;;;;6082728;23;20731;-92
2023/06/03 13:02:42;;;;;;;7.27;5.97;;;;;;;;;;6079924;23;20397;-95
2023/06/03 13:05:11;;;;;;;7.53;5.30;;;;;;;;;;6102794;23;20889;-92
2023/06/03 13:07:38;;;;;;;7.17;5.90;;;;;;;;;;6080770;23;20784;-93
2023/06/03 13:10:04;;;;;;;7.70;7.00;;;;;;;;;;6084281;23;20429;-95
2023/06/03 13:12:31;;;;;;;7.80;6.33;;;;;;;;;;6081028;23;20844;-93
2023/06/03 13:14:57;;;;;;;9.90;6.67;;;;;;;;;;6080747;23;20406;-92
2023/06/03 13:17:23;;;;;;;6.23;5.67;;;;;;;;;;6080560;23;20386;-93
2023/06/03 13:19:49;;;;;;;7.80;7.00;;;;;;;;;;6082883;23;20393;-93
2023/06/03 13:22:16;;;;;;;6.90;5.43;;;;;;;;;;6103200;23;20409;-90
2023/06/03 13:24:42;;;;;;;6.50;5.93;;;;;;;;;;6079680;23;20393;-94
2023/06/03 13:32:21;;;;;;;7.37;5.77;;;;;;;;;;6165435;23;20430;-92
2023/06/03 13:34:47;;;;;;;6.60;5.90;;;;;;;;;;6139148;23;20396;-92
2023/06/03 13:37:13;;;;;;;8.37;6.10;;;;;;;;;;6137963;23;20387;-92
2023/06/03 13:39:44;;;;;;;6.70;6.00;;;;;;;;;;6140753;23;20380;-93
2023/06/03 13:42:10;;;;;;;6.30;5.70;;;;;;;;;;6139877;23;20403;-89
2023/06/03 13:44:36;;;;;;;7.43;5.83;;;;;;;;;;6137719;23;20383;-91
2023/06/03 13:47:03;;;;;;;6.67;6.00;;;;;;;;;;6165471;23;20359;-93
2023/06/03 13:49:29;;;;;;;6.37;5.67;;;;;;;;;;6140585;23;20446;-92
2023/06/03 13:51:55;;;;;;;13.10;6.30;;;;;;;;;;6165068;23;20348;-91
2023/06/03 13:59:35;;;;;;;9.40;5.93;;;;;;;;;;6191396;23;20411;-92
2023/06/03 14:02:01;;;;;;;6.00;5.40;;;;;;;;;;6140491;23;20375;-93
2023/06/03 14:04:27;;;;;;;8.23;6.00;;;;;;;;;;6139999;23;20394;-91
2023/06/03 14:06:54;;;;;;;11.30;6.20;;;;;;;;;;6137983;23;20400;-92
2023/06/03 14:09:23;;;;;;;7.23;5.87;;;;;;;;;;6149280;23;20419;-96
2023/06/03 14:11:50;;;;;;;7.53;6.07;;;;;;;;;;6173308;23;20886;-96
2023/06/03 14:14:16;;;;;;;5.27;4.80;;;;;;;;;;6150273;23;20396;-96
2023/06/03 14:27:06;;;;;;;8.00;6.80;;;;;;;;;;6199397;23;20774;-94
2023/06/03 14:29:32;;;;;;;6.30;5.67;;;;;;;;;;6142526;23;20495;-94
2023/06/03 14:31:58;;;;;;;9.87;6.47;;;;;;;;;;6142374;23;20770;-93
2023/06/03 14:34:24;;;;;;;7.73;6.60;;;;;;;;;;6140597;23;20371;-93
2023/06/03 14:36:50;;;;;;;7.40;6.40;;;;;;;;;;6141046;23;20380;-95
2023/06/03 14:39:16;;;;;;;6.93;5.97;;;;;;;;;;6140887;23;20466;-91
2023/06/03 14:41:42;;;;;;;6.83;6.10;;;;;;;;;;6140311;23;20441;-94
2023/06/03 14:44:08;;;;;;;8.23;6.30;;;;;;;;;;6138837;23;20384;-92
2023/06/03 14:46:34;;;;;;;9.90;6.20;;;;;;;;;;6145199;23;20476;-94
2023/06/03 14:49:00;;;;;;;7.70;6.23;;;;;;;;;;6140979;23;20388;-95
2023/06/03 14:51:26;;;;;;;7.33;5.50;;;;;;;;;;6139517;23;20543;-95
2023/06/03 14:53:52;;;;;;;9.50;6.77;;;;;;;;;;6141014;23;20380;-92
2023/06/03 14:56:18;;;;;;;6.47;5.43;;;;;;;;;;6140870;23;20388;-93
2023/06/03 14:58:44;;;;;;;7.60;6.20;;;;;;;;;;6140242;23;20447;-95
2023/06/03 15:01:10;;;;;;;6.73;6.00;;;;;;;;;;6142571;23;20384;-95
2023/06/03 15:03:36;;;;;;;6.50;5.87;;;;;;;;;;6137935;23;20942;-94
2023/06/03 15:06:02;;;;;;;7.80;5.50;;;;;;;;;;6138397;23;20384;-93
2023/06/03 15:08:28;;;;;;;7.30;6.50;;;;;;;;;;6137494;23;20790;-91
2023/06/03 15:10:54;;;;;;;6.67;6.03;;;;;;;;;;6142930;23;20428;-94
2023/06/03 15:13:20;;;;;;;11.10;6.47;;;;;;;;;;6119054;23;20456;-93
2023/06/03 15:15:46;;;;;;;7.33;5.60;;;;;;;;;;6137672;23;20376;-92
2023/06/03 15:18:12;;;;;;;7.77;6.33;;;;;;;;;;6108886;23;20393;-90
2023/06/03 15:20:40;;;;;;;9.10;6.27;;;;;;;;;;6109837;23;20411;-90
2023/06/03 15:23:06;;;;;;;7.30;5.70;;;;;;;;;;6133363;23;20638;-88
2023/06/03 15:25:32;;;;;;;8.30;6.87;;;;;;;;;;6109375;23;20393;-91
2023/06/03 15:27:58;;;;;;;7.90;5.97;;;;;;;;;;6109453;23;21135;-91
2023/06/03 15:30:24;;;;;;;6.90;6.00;;;;;;;;;;6107992;23;20459;-91
2023/06/03 15:32:50;;;;;;;7.33;5.73;;;;;;;;;;6110094;23;20714;-93
2023/06/03 15:35:16;;;;;;;6.97;6.27;;;;;;;;;;6110672;23;20407;-91
2023/06/03 15:37:42;;;;;;;6.73;6.13;;;;;;;;;;6108880;23;20475;-91
2023/06/03 15:40:08;;;;;;;6.40;5.80;;;;;;;;;;6108330;23;20384;-91
2023/06/03 15:42:34;;;;;;;7.17;5.83;;;;;;;;;;6109964;23;20648;-92